• Join FlightAware (Why Join?)
  • Login
  • US Flag 
02:15AM EST


 

Airport Tracker/Info


-or-


 

Live Flight TrackerFlight Track Log ✈ FLG4099 ✈ 08-May-2013 ✈ KBTV - KDTW

Flight Track Log - Related Links

Times and Time Zones

All times are in EDT time to prevent confusion due to time zone crossing. See the FLG4099 flight status page for this flight to view local times or setup timezone preferences in your user account.

Time Position Orientation Groundspeed Altitude Reporting Facility
EDT Latitude Longitude Course Direction KTS MPH feet Rate Location/Type
06:10AM 44.4125 -73.2828 259° West 237 273 6,400  Level Boston Center
06:11AM 44.3661 -73.7040 259° West  Level FlightAware Approximate
06:11AM 44.3947 -73.4017 258° West 280 322 10,000  Level Boston Center
06:12AM 44.3461 -73.8443 259° West  Level FlightAware Approximate
06:12AM 44.3772 -73.5147 258° West 299 344 12,000  Level Boston Center
06:13AM 44.3241 -73.9839 256° West  Level FlightAware Approximate
06:13AM 44.3550 -73.6478 257° West 332 382 13,400  Level Boston Center
06:14AM 44.2986 -74.1224 256° West  Level FlightAware Approximate
06:14AM 44.3347 -73.7867 259° West 366 421 15,600  Level Boston Center
06:15AM 44.2729 -74.2607 256° West  Level FlightAware Approximate
06:15AM 44.3122 -73.9283 258° West 372 428 17,500  Level Boston Center
06:16AM 44.2477 -74.3991 259° West  Level FlightAware Approximate
06:16AM 44.2872 -74.0728 256° West 377 434 18,900  Level Boston Center
06:17AM 44.2664 -74.2172 259° West 377 434 20,300 1,380 Climbing Boston Center
06:18AM 44.2411 -74.3700 257° West 393 452 21,700 1,200 Climbing Boston Center
06:19AM 44.2175 -74.5228 258° West 400 460 22,700 960 Climbing Boston Center
06:20AM 44.1917 -74.6753 257° West 412 474 23,700 960 Climbing Boston Center
06:21AM 44.1656 -74.8336 257° West 412 474 24,700 960 Climbing Boston Center
06:22AM 44.1392 -74.9917 257° West 417 480 25,700 960 Climbing Boston Center
06:23AM 44.1128 -75.1497 257° West 417 480 26,700 960 Climbing Boston Center
06:24AM 44.0858 -75.3133 257° West 424 488 27,700 900 Climbing Boston Center
06:25AM 44.0589 -75.4681 256° West 429 494 28,600 660 Climbing Boston Center
06:26AM 44.0317 -75.6311 257° West 429 494 29,100 480 Climbing Boston Center
06:27AM 44.0017 -75.8000 256° West 429 494 29,600 420 Climbing Boston Center
06:28AM 43.9739 -75.9628 257° West 435 501 30,000 180 Climbing Boston Center
06:29AM 43.9539 -76.1378 261° West 446 513 30,000  Level Boston Center
06:30AM 43.9478 -76.3192 267° West 464 534 30,000  Level Boston Center
06:31AM 43.9436 -76.5006 268° West 469 540 30,000  Level Boston Center
06:32AM 43.9167 -76.6500 256° West 480 552 30,000  Level Toronto Center
06:33AM 43.9167 -76.8333 270° West 480 552 30,000  Level Toronto Center
06:34AM 43.9167 -77.0167 270° West 480 552 30,000  Level Toronto Center
06:35AM 43.9000 -77.2000 263° West 480 552 30,000  Level Toronto Center
06:36AM 43.9167 -77.3833 277° West 490 564 30,000  Level Toronto Center
06:37AM 43.9000 -77.5667 263° West 490 564 30,000  Level Toronto Center
06:38AM 43.8833 -77.7833 264° West 490 564 30,000  Level Toronto Center
06:39AM 43.8833 -77.9667 270° West 490 564 30,000  Level Toronto Center
06:40AM 43.8667 -78.1333 262° West 490 564 30,000  Level Toronto Center
06:41AM 43.8667 -78.3333 270° West 490 564 30,000  Level Toronto Center
06:42AM 43.8667 -78.5167 270° West 490 564 30,000  Level Toronto Center
06:43AM 43.8333 -78.7167 257° West 480 552 30,000  Level Toronto Center
06:44AM 43.7500 -78.8500 229° Southwest 480 552 30,000  Level Toronto Center
06:45AM 43.6833 -79.0167 241° Southwest 480 552 30,000  Level Toronto Center
06:46AM 43.6000 -79.1500 229° Southwest 480 552 30,000  Level Toronto Center
06:47AM 43.5333 -79.2833 235° Southwest 470 541 30,000  Level Toronto Center
06:48AM 43.4500 -79.4500 235° Southwest 480 552 30,000  Level Toronto Center
06:49AM 43.3667 -79.5833 229° Southwest 480 552 30,000  Level Toronto Center
06:50AM 43.3000 -79.7500 241° Southwest 480 552 30,000  Level Toronto Center
06:51AM 43.2167 -79.8833 229° Southwest 470 541 30,000 -300 Level Toronto Center
06:52AM 43.1333 -80.0500 236° Southwest 480 552 29,400 -1,200 Descending Toronto Center
06:53AM 43.0667 -80.1833 236° Southwest 470 541 27,700 -1,740 Descending Toronto Center
06:54AM 43.0000 -80.3167 236° Southwest 460 529 26,000 -1,740 Descending Toronto Center
06:55AM 42.9167 -80.4833 236° Southwest 460 529 24,300 -1,200 Descending Toronto Center
06:57AM 42.8125 -80.6908 236° Southwest 457 526 23,000 -540 Descending Cleveland Center
06:58AM 42.7475 -80.8150 235° Southwest 426 490 23,000 -300 Level Cleveland Center
06:59AM 42.6889 -80.9392 237° Southwest 400 460 22,500 -780 Descending Cleveland Center
07:00AM 42.6342 -81.0631 239° Southwest 394 453 21,500 -1,080 Descending Cleveland Center
07:01AM 42.5794 -81.1922 240° Southwest 389 448 20,400 -900 Descending Cleveland Center
07:02AM 42.5767 -81.3106 268° West 362 417 19,700 -720 Descending Cleveland Center
07:03AM 42.6239 -81.4325 298° West 354 407 19,000 -360 Descending Cleveland Center
07:04AM 42.6625 -81.5600 292° West 367 422 19,000  Level Cleveland Center
07:05AM 42.6425 -81.6981 259° West 360 414 19,000  Level Cleveland Center
07:06AM 42.6181 -81.8444 257° West 365 420 19,000  Level Cleveland Center
07:07AM 42.5978 -81.9767 258° West 365 420 19,000 -480 Level Cleveland Center
07:08AM 42.5772 -82.1114 258° West 370 426 18,100 -1,380 Descending Cleveland Center
07:09AM 42.5567 -82.2406 258° West 370 426 16,300 -1,860 Descending Cleveland Center
07:09AM 42.5453 -82.3078 257° West 347 399 15,300 -1,920 Descending Cleveland Center
07:10AM 42.5358 -82.3697 258° West 370 426 14,400 -1,920 Descending Cleveland Center
07:11AM 42.5172 -82.4903 258° West 354 407 12,500 -1,200 Descending Cleveland Center
07:12AM 42.4842 -82.6075 249° West 337 388 12,000 -360 Descending Cleveland Center
07:13AM 42.4486 -82.7189 247° West 329 379 11,900 -480 Descending Cleveland Center
07:14AM 42.4092 -82.8300 244° Southwest 326 375 11,100 -480 Descending Cleveland Center
07:15AM 42.3672 -82.9353 242° Southwest 323 372 11,000 -60 Descending Cleveland Center
07:16AM 42.3275 -83.0464 244° Southwest 332 382 11,000  Level Cleveland Center
07:17AM 42.2964 -83.1350 245° Southwest 302 348 11,000  Level Cleveland Center
07:18AM 42.2550 -83.2092 233° Southwest 272 313 11,000 -360 Level Cleveland Center
07:19AM 42.1897 -83.2428 201° Southwest 247 284 10,300 -1,380 Descending Cleveland Center
07:20AM 42.1200 -83.2819 203° Southwest 248 285 8,200 -1,980 Descending Cleveland Center
07:21AM 42.0650 -83.3158 205° Southwest 242 278 6,400 -1,740 Descending Cleveland Center
07:22AM 42.0136 -83.3667 216° Southwest 246 283 4,900 -1,200 Descending Cleveland Center
07:23AM 42.0203 -83.4425 277° West 181 208 4,000 -840 Descending Cleveland Center
07:24AM 42.0703 -83.4419 360° North 175 201 3,200 -720 Descending Cleveland Center
07:25AM 42.1106 -83.4158 26° Northeast 135 155 2,600 -600 Descending Cleveland Center